sensor_id;sensor_type;location;lat;lon;timestamp;temperature;humidity
40932;DHT22;36257;46.052;12.540;2023-09-18T00:01:37;20.20;99.90
40932;DHT22;36257;46.052;12.540;2023-09-18T00:04:05;20.20;99.90
40932;DHT22;36257;46.052;12.540;2023-09-18T00:06:32;20.20;99.90
40932;DHT22;36257;46.052;12.540;2023-09-18T00:08:57;20.20;99.90
40932;DHT22;36257;46.052;12.540;2023-09-18T00:11:23;20.20;99.90
40932;DHT22;36257;46.052;12.540;2023-09-18T00:13:49;20.30;99.90
40932;DHT22;36257;46.052;12.540;2023-09-18T00:16:15;20.40;99.90
40932;DHT22;36257;46.052;12.540;2023-09-18T00:18:40;20.30;99.90
40932;DHT22;36257;46.052;12.540;2023-09-18T00:21:07;20.40;99.90
40932;DHT22;36257;46.052;12.540;2023-09-18T00:23:38;20.40;99.90
40932;DHT22;36257;46.052;12.540;2023-09-18T00:26:04;20.40;99.90
40932;DHT22;36257;46.052;12.540;2023-09-18T00:28:30;20.50;99.90
40932;DHT22;36257;46.052;12.540;2023-09-18T00:30:55;20.40;99.90
40932;DHT22;36257;46.052;12.540;2023-09-18T00:33:21;20.50;99.90
40932;DHT22;36257;46.052;12.540;2023-09-18T00:35:51;20.50;99.90
40932;DHT22;36257;46.052;12.540;2023-09-18T00:38:17;20.50;99.90
40932;DHT22;36257;46.052;12.540;2023-09-18T00:40:43;20.50;99.90
40932;DHT22;36257;46.052;12.540;2023-09-18T00:43:08;20.40;99.90
40932;DHT22;36257;46.052;12.540;2023-09-18T00:45:39;20.40;99.90
40932;DHT22;36257;46.052;12.540;2023-09-18T00:48:06;20.30;99.90
40932;DHT22;36257;46.052;12.540;2023-09-18T00:50:32;20.30;99.90
40932;DHT22;36257;46.052;12.540;2023-09-18T00:52:59;20.30;99.90
40932;DHT22;36257;46.052;12.540;2023-09-18T00:55:25;20.30;99.90
40932;DHT22;36257;46.052;12.540;2023-09-18T00:57:50;20.30;99.90
40932;DHT22;36257;46.052;12.540;2023-09-18T01:00:16;20.40;99.90
40932;DHT22;36257;46.052;12.540;2023-09-18T01:02:43;20.40;99.90
40932;DHT22;36257;46.052;12.540;2023-09-18T01:05:10;20.40;99.90
40932;DHT22;36257;46.052;12.540;2023-09-18T01:07:36;20.40;99.90
40932;DHT22;36257;46.052;12.540;2023-09-18T01:10:02;20.30;99.90
40932;DHT22;36257;46.052;12.540;2023-09-18T01:12:39;20.30;99.90
40932;DHT22;36257;46.052;12.540;2023-09-18T01:15:22;20.30;99.90
40932;DHT22;36257;46.052;12.540;2023-09-18T01:17:52;20.30;99.90
40932;DHT22;36257;46.052;12.540;2023-09-18T01:20:18;20.30;99.90
40932;DHT22;36257;46.052;12.540;2023-09-18T01:22:44;20.30;99.90
40932;DHT22;36257;46.052;12.540;2023-09-18T01:25:09;20.30;99.90
40932;DHT22;36257;46.052;12.540;2023-09-18T01:27:35;20.30;99.90
40932;DHT22;36257;46.052;12.540;2023-09-18T01:30:01;20.30;99.90
40932;DHT22;36257;46.052;12.540;2023-09-18T01:32:30;20.40;99.90
40932;DHT22;36257;46.052;12.540;2023-09-18T01:34:57;20.40;99.90
40932;DHT22;36257;46.052;12.540;2023-09-18T01:37:30;20.40;99.90
40932;DHT22;36257;46.052;12.540;2023-09-18T01:39:56;20.40;99.90
40932;DHT22;36257;46.052;12.540;2023-09-18T01:42:26;20.30;99.90
40932;DHT22;36257;46.052;12.540;2023-09-18T01:44:53;20.20;99.90
40932;DHT22;36257;46.052;12.540;2023-09-18T01:47:20;20.20;99.90
40932;DHT22;36257;46.052;12.540;2023-09-18T01:49:46;20.20;99.90
40932;DHT22;36257;46.052;12.540;2023-09-18T01:52:12;20.20;99.90
40932;DHT22;36257;46.052;12.540;2023-09-18T01:54:38;20.10;99.90
40932;DHT22;36257;46.052;12.540;2023-09-18T01:57:04;20.10;99.90
40932;DHT22;36257;46.052;12.540;2023-09-18T01:59:33;19.90;99.90
40932;DHT22;36257;46.052;12.540;2023-09-18T02:01:59;19.90;99.90
40932;DHT22;36257;46.052;12.540;2023-09-18T02:04:25;19.90;99.90
40932;DHT22;36257;46.052;12.540;2023-09-18T02:06:52;19.90;99.90
40932;DHT22;36257;46.052;12.540;2023-09-18T02:09:18;20.00;99.90
40932;DHT22;36257;46.052;12.540;2023-09-18T02:11:45;20.00;99.90
40932;DHT22;36257;46.052;12.540;2023-09-18T02:14:11;20.00;99.90
40932;DHT22;36257;46.052;12.540;2023-09-18T02:16:39;20.00;99.90
40932;DHT22;36257;46.052;12.540;2023-09-18T02:19:08;19.90;99.90
40932;DHT22;36257;46.052;12.540;2023-09-18T02:21:34;19.90;99.90
40932;DHT22;36257;46.052;12.540;2023-09-18T02:23:59;19.80;99.90
40932;DHT22;36257;46.052;12.540;2023-09-18T02:26:26;19.70;99.90
40932;DHT22;36257;46.052;12.540;2023-09-18T02:28:53;19.70;99.90
40932;DHT22;36257;46.052;12.540;2023-09-18T02:31:23;19.80;99.90
40932;DHT22;36257;46.052;12.540;2023-09-18T02:33:48;19.80;99.90
40932;DHT22;36257;46.052;12.540;2023-09-18T02:36:14;19.80;99.90
40932;DHT22;36257;46.052;12.540;2023-09-18T02:38:40;19.80;99.90
40932;DHT22;36257;46.052;12.540;2023-09-18T02:41:06;19.80;99.90
40932;DHT22;36257;46.052;12.540;2023-09-18T02:43:31;19.80;99.90
40932;DHT22;36257;46.052;12.540;2023-09-18T02:45:57;19.80;99.90
40932;DHT22;36257;46.052;12.540;2023-09-18T02:48:23;19.80;99.90
40932;DHT22;36257;46.052;12.540;2023-09-18T02:50:48;19.80;99.90
40932;DHT22;36257;46.052;12.540;2023-09-18T02:53:18;19.70;99.90
40932;DHT22;36257;46.052;12.540;2023-09-18T02:55:44;19.70;99.90
40932;DHT22;36257;46.052;12.540;2023-09-18T02:58:10;19.70;99.90
40932;DHT22;36257;46.052;12.540;2023-09-18T03:00:45;19.70;99.90
40932;DHT22;36257;46.052;12.540;2023-09-18T03:03:11;19.70;99.90
40932;DHT22;36257;46.052;12.540;2023-09-18T03:05:38;19.70;99.90
40932;DHT22;36257;46.052;12.540;2023-09-18T03:08:04;19.70;99.90
40932;DHT22;36257;46.052;12.540;2023-09-18T03:10:34;19.70;99.90
40932;DHT22;36257;46.052;12.540;2023-09-18T03:13:03;19.70;99.90
40932;DHT22;36257;46.052;12.540;2023-09-18T03:15:29;19.70;99.90
40932;DHT22;36257;46.052;12.540;2023-09-18T03:17:56;19.70;99.90
40932;DHT22;36257;46.052;12.540;2023-09-18T03:20:23;19.70;99.90
40932;DHT22;36257;46.052;12.540;2023-09-18T03:22:50;19.70;99.90
40932;DHT22;36257;46.052;12.540;2023-09-18T03:25:16;19.70;99.90
40932;DHT22;36257;46.052;12.540;2023-09-18T03:27:42;19.70;99.90
40932;DHT22;36257;46.052;12.540;2023-09-18T03:30:08;19.70;99.90
40932;DHT22;36257;46.052;12.540;2023-09-18T03:32:34;19.70;99.90
40932;DHT22;36257;46.052;12.540;2023-09-18T03:35:00;19.60;99.90
40932;DHT22;36257;46.052;12.540;2023-09-18T03:37:25;19.60;99.90
40932;DHT22;36257;46.052;12.540;2023-09-18T03:39:51;19.60;99.90
40932;DHT22;36257;46.052;12.540;2023-09-18T03:42:17;19.60;99.90
40932;DHT22;36257;46.052;12.540;2023-09-18T03:44:42;19.60;99.90
40932;DHT22;36257;46.052;12.540;2023-09-18T03:47:08;19.50;99.90
40932;DHT22;36257;46.052;12.540;2023-09-18T03:49:34;19.50;99.90
40932;DHT22;36257;46.052;12.540;2023-09-18T03:51:59;19.60;99.90
40932;DHT22;36257;46.052;12.540;2023-09-18T03:54:25;19.60;99.90
40932;DHT22;36257;46.052;12.540;2023-09-18T03:56:50;19.60;99.90
40932;DHT22;36257;46.052;12.540;2023-09-18T03:59:16;19.70;99.90
40932;DHT22;36257;46.052;12.540;2023-09-18T04:01:42;19.70;99.90
40932;DHT22;36257;46.052;12.540;2023-09-18T04:04:07;19.70;99.90
40932;DHT22;36257;46.052;12.540;2023-09-18T04:06:40;19.70;99.90
40932;DHT22;36257;46.052;12.540;2023-09-18T04:09:06;19.80;99.90
40932;DHT22;36257;46.052;12.540;2023-09-18T04:11:32;19.80;99.90
40932;DHT22;36257;46.052;12.540;2023-09-18T04:14:01;19.80;99.90
40932;DHT22;36257;46.052;12.540;2023-09-18T04:16:28;19.80;99.90
40932;DHT22;36257;46.052;12.540;2023-09-18T04:18:56;19.80;99.90
40932;DHT22;36257;46.052;12.540;2023-09-18T04:21:22;19.80;99.90
40932;DHT22;36257;46.052;12.540;2023-09-18T04:23:47;19.80;99.90
40932;DHT22;36257;46.052;12.540;2023-09-18T04:26:13;19.90;99.90
40932;DHT22;36257;46.052;12.540;2023-09-18T04:28:45;19.90;99.90
40932;DHT22;36257;46.052;12.540;2023-09-18T04:31:11;19.90;99.90
40932;DHT22;36257;46.052;12.540;2023-09-18T04:33:37;19.90;99.90
40932;DHT22;36257;46.052;12.540;2023-09-18T04:36:03;19.90;99.90
40932;DHT22;36257;46.052;12.540;2023-09-18T04:38:29;19.80;99.90
40932;DHT22;36257;46.052;12.540;2023-09-18T04:40:59;19.80;99.90
40932;DHT22;36257;46.052;12.540;2023-09-18T04:43:24;19.80;99.90
40932;DHT22;36257;46.052;12.540;2023-09-18T04:45:50;19.80;99.90
40932;DHT22;36257;46.052;12.540;2023-09-18T04:48:16;19.80;99.90
40932;DHT22;36257;46.052;12.540;2023-09-18T04:50:45;19.70;99.90
40932;DHT22;36257;46.052;12.540;2023-09-18T04:53:12;19.70;99.90
40932;DHT22;36257;46.052;12.540;2023-09-18T04:55:37;19.70;99.90
40932;DHT22;36257;46.052;12.540;2023-09-18T04:58:03;19.70;99.90
40932;DHT22;36257;46.052;12.540;2023-09-18T05:00:30;19.70;99.90
40932;DHT22;36257;46.052;12.540;2023-09-18T05:02:57;19.80;99.90
40932;DHT22;36257;46.052;12.540;2023-09-18T05:05:26;19.80;99.90
40932;DHT22;36257;46.052;12.540;2023-09-18T05:07:51;19.80;99.90
40932;DHT22;36257;46.052;12.540;2023-09-18T05:10:17;19.80;99.90
40932;DHT22;36257;46.052;12.540;2023-09-18T05:12:42;19.70;99.90
40932;DHT22;36257;46.052;12.540;2023-09-18T05:15:09;19.70;99.90
40932;DHT22;36257;46.052;12.540;2023-09-18T05:17:46;19.80;99.90
40932;DHT22;36257;46.052;12.540;2023-09-18T05:20:13;19.80;99.90
40932;DHT22;36257;46.052;12.540;2023-09-18T05:22:41;19.80;99.90
40932;DHT22;36257;46.052;12.540;2023-09-18T05:25:08;19.80;99.90
40932;DHT22;36257;46.052;12.540;2023-09-18T05:27:35;19.80;99.90
40932;DHT22;36257;46.052;12.540;2023-09-18T05:30:10;19.80;99.90
40932;DHT22;36257;46.052;12.540;2023-09-18T05:32:36;19.90;99.90
40932;DHT22;36257;46.052;12.540;2023-09-18T05:35:02;20.00;99.90
40932;DHT22;36257;46.052;12.540;2023-09-18T05:37:32;20.00;99.90
40932;DHT22;36257;46.052;12.540;2023-09-18T05:39:57;20.00;99.90
40932;DHT22;36257;46.052;12.540;2023-09-18T05:42:23;20.00;99.90
40932;DHT22;36257;46.052;12.540;2023-09-18T05:44:49;20.10;99.90
40932;DHT22;36257;46.052;12.540;2023-09-18T05:47:14;20.00;99.90
40932;DHT22;36257;46.052;12.540;2023-09-18T05:49:40;20.10;99.90
40932;DHT22;36257;46.052;12.540;2023-09-18T05:52:06;20.10;99.90
40932;DHT22;36257;46.052;12.540;2023-09-18T05:54:31;20.20;99.90
40932;DHT22;36257;46.052;12.540;2023-09-18T05:56:57;20.20;99.90
40932;DHT22;36257;46.052;12.540;2023-09-18T05:59:22;20.30;99.90
40932;DHT22;36257;46.052;12.540;2023-09-18T06:01:48;20.30;99.90
40932;DHT22;36257;46.052;12.540;2023-09-18T06:04:14;20.30;99.90
40932;DHT22;36257;46.052;12.540;2023-09-18T06:06:42;20.30;99.90
40932;DHT22;36257;46.052;12.540;2023-09-18T06:09:08;20.40;99.90
40932;DHT22;36257;46.052;12.540;2023-09-18T06:11:33;20.40;99.90
40932;DHT22;36257;46.052;12.540;2023-09-18T06:13:59;20.40;99.90
40932;DHT22;36257;46.052;12.540;2023-09-18T06:16:25;20.40;99.90
40932;DHT22;36257;46.052;12.540;2023-09-18T06:18:50;20.50;99.90
40932;DHT22;36257;46.052;12.540;2023-09-18T06:21:16;20.60;99.90
40932;DHT22;36257;46.052;12.540;2023-09-18T06:23:41;20.60;99.90
40932;DHT22;36257;46.052;12.540;2023-09-18T06:26:07;20.70;99.90
40932;DHT22;36257;46.052;12.540;2023-09-18T06:28:33;20.70;99.90
40932;DHT22;36257;46.052;12.540;2023-09-18T06:30:58;20.70;99.90
40932;DHT22;36257;46.052;12.540;2023-09-18T06:33:24;20.80;99.90
40932;DHT22;36257;46.052;12.540;2023-09-18T06:35:49;20.80;99.90
40932;DHT22;36257;46.052;12.540;2023-09-18T06:38:17;20.90;99.90
40932;DHT22;36257;46.052;12.540;2023-09-18T06:40:42;21.00;99.90
40932;DHT22;36257;46.052;12.540;2023-09-18T06:43:08;21.00;99.90
40932;DHT22;36257;46.052;12.540;2023-09-18T06:45:34;21.10;99.90
40932;DHT22;36257;46.052;12.540;2023-09-18T06:47:59;21.20;99.90
40932;DHT22;36257;46.052;12.540;2023-09-18T06:50:28;21.30;99.90
40932;DHT22;36257;46.052;12.540;2023-09-18T06:52:54;21.40;99.90
40932;DHT22;36257;46.052;12.540;2023-09-18T06:55:20;21.40;99.90
40932;DHT22;36257;46.052;12.540;2023-09-18T06:57:45;21.40;99.90
40932;DHT22;36257;46.052;12.540;2023-09-18T07:00:13;21.50;99.90
40932;DHT22;36257;46.052;12.540;2023-09-18T07:02:40;21.50;99.90
40932;DHT22;36257;46.052;12.540;2023-09-18T07:05:06;21.50;99.90
40932;DHT22;36257;46.052;12.540;2023-09-18T07:07:32;21.50;99.90
40932;DHT22;36257;46.052;12.540;2023-09-18T07:09:57;21.50;99.90
40932;DHT22;36257;46.052;12.540;2023-09-18T07:12:23;21.50;99.90
40932;DHT22;36257;46.052;12.540;2023-09-18T07:14:49;21.60;99.90
40932;DHT22;36257;46.052;12.540;2023-09-18T07:17:14;21.70;99.90
40932;DHT22;36257;46.052;12.540;2023-09-18T07:19:41;21.70;99.90
40932;DHT22;36257;46.052;12.540;2023-09-18T07:22:06;21.70;99.90
40932;DHT22;36257;46.052;12.540;2023-09-18T07:24:32;21.80;99.90
40932;DHT22;36257;46.052;12.540;2023-09-18T07:26:57;21.80;99.90
40932;DHT22;36257;46.052;12.540;2023-09-18T07:29:23;21.90;99.90
40932;DHT22;36257;46.052;12.540;2023-09-18T07:31:50;21.90;99.90
40932;DHT22;36257;46.052;12.540;2023-09-18T07:34:16;22.00;99.90
40932;DHT22;36257;46.052;12.540;2023-09-18T07:36:43;22.00;99.90
40932;DHT22;36257;46.052;12.540;2023-09-18T07:39:10;22.10;99.90
40932;DHT22;36257;46.052;12.540;2023-09-18T07:41:37;22.10;99.90
40932;DHT22;36257;46.052;12.540;2023-09-18T07:44:03;22.20;99.90
40932;DHT22;36257;46.052;12.540;2023-09-18T07:46:29;22.20;99.90
40932;DHT22;36257;46.052;12.540;2023-09-18T07:48:55;22.30;99.90
40932;DHT22;36257;46.052;12.540;2023-09-18T07:51:20;22.30;99.90
40932;DHT22;36257;46.052;12.540;2023-09-18T07:53:46;22.40;99.90
40932;DHT22;36257;46.052;12.540;2023-09-18T07:56:12;22.40;99.90
40932;DHT22;36257;46.052;12.540;2023-09-18T07:58:38;22.50;99.90
40932;DHT22;36257;46.052;12.540;2023-09-18T08:01:05;22.50;99.90
40932;DHT22;36257;46.052;12.540;2023-09-18T08:03:31;22.70;99.90
40932;DHT22;36257;46.052;12.540;2023-09-18T08:05:57;22.70;99.90
40932;DHT22;36257;46.052;12.540;2023-09-18T08:08:23;22.70;99.90
40932;DHT22;36257;46.052;12.540;2023-09-18T08:10:50;22.80;99.90
40932;DHT22;36257;46.052;12.540;2023-09-18T08:13:17;22.90;99.90
40932;DHT22;36257;46.052;12.540;2023-09-18T08:15:43;22.90;99.90
40932;DHT22;36257;46.052;12.540;2023-09-18T08:18:10;22.90;99.90
40932;DHT22;36257;46.052;12.540;2023-09-18T08:20:55;23.00;99.90
40932;DHT22;36257;46.052;12.540;2023-09-18T08:23:23;23.00;99.90
40932;DHT22;36257;46.052;12.540;2023-09-18T08:25:49;23.00;99.90
40932;DHT22;36257;46.052;12.540;2023-09-18T08:28:17;22.90;99.90
40932;DHT22;36257;46.052;12.540;2023-09-18T08:30:42;22.90;99.90
40932;DHT22;36257;46.052;12.540;2023-09-18T08:33:13;23.00;99.90
40932;DHT22;36257;46.052;12.540;2023-09-18T08:35:38;22.90;99.90
40932;DHT22;36257;46.052;12.540;2023-09-18T08:38:05;22.90;99.90
40932;DHT22;36257;46.052;12.540;2023-09-18T08:40:30;22.90;99.90
40932;DHT22;36257;46.052;12.540;2023-09-18T08:42:56;22.90;99.90
40932;DHT22;36257;46.052;12.540;2023-09-18T08:45:43;22.90;99.90
40932;DHT22;36257;46.052;12.540;2023-09-18T08:48:10;22.90;99.90
40932;DHT22;36257;46.052;12.540;2023-09-18T08:50:38;22.90;99.90
40932;DHT22;36257;46.052;12.540;2023-09-18T08:53:04;22.90;99.90
40932;DHT22;36257;46.052;12.540;2023-09-18T08:55:30;22.90;99.90
40932;DHT22;36257;46.052;12.540;2023-09-18T08:57:58;22.80;99.90
40932;DHT22;36257;46.052;12.540;2023-09-18T09:00:24;22.80;99.90
40932;DHT22;36257;46.052;12.540;2023-09-18T09:02:50;22.70;99.90
40932;DHT22;36257;46.052;12.540;2023-09-18T09:05:17;22.70;99.90
40932;DHT22;36257;46.052;12.540;2023-09-18T09:07:43;22.70;99.90
40932;DHT22;36257;46.052;12.540;2023-09-18T09:10:09;22.70;99.90
40932;DHT22;36257;46.052;12.540;2023-09-18T09:12:57;22.70;99.90
40932;DHT22;36257;46.052;12.540;2023-09-18T09:15:28;22.70;99.90
40932;DHT22;36257;46.052;12.540;2023-09-18T09:18:05;22.80;99.90
40932;DHT22;36257;46.052;12.540;2023-09-18T09:20:32;22.90;99.90
40932;DHT22;36257;46.052;12.540;2023-09-18T09:23:02;22.90;99.90
40932;DHT22;36257;46.052;12.540;2023-09-18T09:25:29;23.00;99.90
40932;DHT22;36257;46.052;12.540;2023-09-18T09:27:58;23.00;99.90
40932;DHT22;36257;46.052;12.540;2023-09-18T09:30:26;23.00;99.90
40932;DHT22;36257;46.052;12.540;2023-09-18T09:32:53;23.10;99.90
40932;DHT22;36257;46.052;12.540;2023-09-18T09:35:23;23.10;99.90
40932;DHT22;36257;46.052;12.540;2023-09-18T09:37:53;23.20;99.90
40932;DHT22;36257;46.052;12.540;2023-09-18T09:40:22;23.20;99.90
40932;DHT22;36257;46.052;12.540;2023-09-18T09:42:50;23.40;99.90
40932;DHT22;36257;46.052;12.540;2023-09-18T09:45:17;23.40;99.90
40932;DHT22;36257;46.052;12.540;2023-09-18T09:47:43;23.40;99.70
40932;DHT22;36257;46.052;12.540;2023-09-18T09:50:13;23.40;99.90
40932;DHT22;36257;46.052;12.540;2023-09-18T09:52:49;23.50;99.90
40932;DHT22;36257;46.052;12.540;2023-09-18T09:55:33;23.60;99.20
40932;DHT22;36257;46.052;12.540;2023-09-18T09:58:03;23.60;99.90
40932;DHT22;36257;46.052;12.540;2023-09-18T10:00:31;23.60;99.70
40932;DHT22;36257;46.052;12.540;2023-09-18T10:03:04;23.70;99.90
40932;DHT22;36257;46.052;12.540;2023-09-18T10:05:33;23.70;99.60
40932;DHT22;36257;46.052;12.540;2023-09-18T10:08:11;23.70;99.10
40932;DHT22;36257;46.052;12.540;2023-09-18T10:10:40;23.60;99.70
40932;DHT22;36257;46.052;12.540;2023-09-18T10:15:49;23.50;99.80
40932;DHT22;36257;46.052;12.540;2023-09-18T10:18:27;23.50;99.90
40932;DHT22;36257;46.052;12.540;2023-09-18T10:21:41;23.60;99.90
40932;DHT22;36257;46.052;12.540;2023-09-18T10:26:50;23.70;99.90
40932;DHT22;36257;46.052;12.540;2023-09-18T10:29:19;23.70;99.70
40932;DHT22;36257;46.052;12.540;2023-09-18T10:31:46;23.70;99.50
40932;DHT22;36257;46.052;12.540;2023-09-18T10:34:13;23.60;99.30
40932;DHT22;36257;46.052;12.540;2023-09-18T10:36:41;23.70;99.80
40932;DHT22;36257;46.052;12.540;2023-09-18T10:39:10;23.70;98.70
40932;DHT22;36257;46.052;12.540;2023-09-18T10:41:38;23.90;98.80
40932;DHT22;36257;46.052;12.540;2023-09-18T10:44:05;23.90;98.70
40932;DHT22;36257;46.052;12.540;2023-09-18T10:46:31;24.00;98.80
40932;DHT22;36257;46.052;12.540;2023-09-18T10:49:00;24.20;98.80
40932;DHT22;36257;46.052;12.540;2023-09-18T10:51:27;24.30;97.90
40932;DHT22;36257;46.052;12.540;2023-09-18T10:53:55;24.50;96.70
40932;DHT22;36257;46.052;12.540;2023-09-18T10:56:21;24.50;96.00
40932;DHT22;36257;46.052;12.540;2023-09-18T10:58:59;24.40;96.10
40932;DHT22;36257;46.052;12.540;2023-09-18T11:01:25;24.30;96.50
40932;DHT22;36257;46.052;12.540;2023-09-18T11:03:53;24.30;96.60
40932;DHT22;36257;46.052;12.540;2023-09-18T11:06:19;24.10;96.60
40932;DHT22;36257;46.052;12.540;2023-09-18T11:08:49;24.00;96.50
40932;DHT22;36257;46.052;12.540;2023-09-18T11:11:18;24.00;96.90
40932;DHT22;36257;46.052;12.540;2023-09-18T11:13:51;23.90;97.40
40932;DHT22;36257;46.052;12.540;2023-09-18T11:19:12;23.70;97.10
40932;DHT22;36257;46.052;12.540;2023-09-18T11:21:39;23.70;97.30
40932;DHT22;36257;46.052;12.540;2023-09-18T11:24:19;23.60;97.90
40932;DHT22;36257;46.052;12.540;2023-09-18T11:26:47;23.60;97.90
40932;DHT22;36257;46.052;12.540;2023-09-18T11:29:21;23.40;97.90
40932;DHT22;36257;46.052;12.540;2023-09-18T11:31:54;23.30;98.40
40932;DHT22;36257;46.052;12.540;2023-09-18T11:34:28;23.30;98.90
40932;DHT22;36257;46.052;12.540;2023-09-18T11:36:57;23.20;99.10
40932;DHT22;36257;46.052;12.540;2023-09-18T11:39:40;23.20;99.60
40932;DHT22;36257;46.052;12.540;2023-09-18T11:42:13;23.20;99.40
40932;DHT22;36257;46.052;12.540;2023-09-18T11:44:42;23.20;99.90
40932;DHT22;36257;46.052;12.540;2023-09-18T11:47:13;23.30;99.60
40932;DHT22;36257;46.052;12.540;2023-09-18T11:49:57;23.40;99.70
40932;DHT22;36257;46.052;12.540;2023-09-18T11:52:30;23.50;98.70
40932;DHT22;36257;46.052;12.540;2023-09-18T11:54:58;23.50;99.50
40932;DHT22;36257;46.052;12.540;2023-09-18T11:57:24;23.50;99.40
40932;DHT22;36257;46.052;12.540;2023-09-18T11:59:50;23.50;99.00
40932;DHT22;36257;46.052;12.540;2023-09-18T12:02:37;23.50;98.70
40932;DHT22;36257;46.052;12.540;2023-09-18T12:05:17;23.50;98.50
40932;DHT22;36257;46.052;12.540;2023-09-18T12:07:44;23.50;99.30
40932;DHT22;36257;46.052;12.540;2023-09-18T12:10:15;23.50;99.00
40932;DHT22;36257;46.052;12.540;2023-09-18T12:12:43;23.50;98.90
40932;DHT22;36257;46.052;12.540;2023-09-18T12:15:12;23.50;99.10
40932;DHT22;36257;46.052;12.540;2023-09-18T12:17:38;23.60;99.30
40932;DHT22;36257;46.052;12.540;2023-09-18T12:20:04;23.70;98.40
40932;DHT22;36257;46.052;12.540;2023-09-18T12:22:30;23.80;98.30
40932;DHT22;36257;46.052;12.540;2023-09-18T12:25:13;23.80;98.10
40932;DHT22;36257;46.052;12.540;2023-09-18T12:27:44;23.80;97.80
40932;DHT22;36257;46.052;12.540;2023-09-18T12:30:12;23.80;98.00
40932;DHT22;36257;46.052;12.540;2023-09-18T12:32:40;23.90;98.20
40932;DHT22;36257;46.052;12.540;2023-09-18T12:35:06;23.90;97.90
40932;DHT22;36257;46.052;12.540;2023-09-18T12:37:40;23.90;97.50
40932;DHT22;36257;46.052;12.540;2023-09-18T12:40:23;23.90;97.60
40932;DHT22;36257;46.052;12.540;2023-09-18T12:42:49;24.00;97.30
40932;DHT22;36257;46.052;12.540;2023-09-18T12:45:15;24.20;98.20
40932;DHT22;36257;46.052;12.540;2023-09-18T12:47:42;24.50;96.30
40932;DHT22;36257;46.052;12.540;2023-09-18T12:50:12;24.60;95.20
40932;DHT22;36257;46.052;12.540;2023-09-18T12:52:38;24.60;95.30
40932;DHT22;36257;46.052;12.540;2023-09-18T12:55:03;24.60;95.90
40932;DHT22;36257;46.052;12.540;2023-09-18T12:57:32;24.50;96.50
40932;DHT22;36257;46.052;12.540;2023-09-18T12:59:58;24.60;95.80
40932;DHT22;36257;46.052;12.540;2023-09-18T13:02:24;24.60;95.70
40932;DHT22;36257;46.052;12.540;2023-09-18T13:04:54;24.70;95.70
40932;DHT22;36257;46.052;12.540;2023-09-18T13:07:21;24.80;95.10
40932;DHT22;36257;46.052;12.540;2023-09-18T13:10:05;24.90;95.50
40932;DHT22;36257;46.052;12.540;2023-09-18T13:12:49;25.00;95.00
40932;DHT22;36257;46.052;12.540;2023-09-18T13:15:32;25.10;94.80
40932;DHT22;36257;46.052;12.540;2023-09-18T13:18:00;25.10;95.50
40932;DHT22;36257;46.052;12.540;2023-09-18T13:20:28;25.00;94.80
40932;DHT22;36257;46.052;12.540;2023-09-18T13:22:58;25.00;94.80
40932;DHT22;36257;46.052;12.540;2023-09-18T13:25:30;25.00;94.50
40932;DHT22;36257;46.052;12.540;2023-09-18T13:27:56;25.00;94.30
40932;DHT22;36257;46.052;12.540;2023-09-18T13:30:22;24.90;94.60
40932;DHT22;36257;46.052;12.540;2023-09-18T13:32:49;24.80;95.10
40932;DHT22;36257;46.052;12.540;2023-09-18T13:35:19;24.60;95.70
40932;DHT22;36257;46.052;12.540;2023-09-18T13:37:45;24.50;96.10
40932;DHT22;36257;46.052;12.540;2023-09-18T13:40:11;24.40;96.40
40932;DHT22;36257;46.052;12.540;2023-09-18T13:42:38;24.40;96.70
40932;DHT22;36257;46.052;12.540;2023-09-18T13:45:05;24.40;97.20
40932;DHT22;36257;46.052;12.540;2023-09-18T13:47:33;24.30;96.90
40932;DHT22;36257;46.052;12.540;2023-09-18T13:50:03;24.40;97.00
40932;DHT22;36257;46.052;12.540;2023-09-18T13:52:30;24.30;96.40
40932;DHT22;36257;46.052;12.540;2023-09-18T13:54:56;24.40;96.10
40932;DHT22;36257;46.052;12.540;2023-09-18T13:57:22;24.40;95.90
40932;DHT22;36257;46.052;12.540;2023-09-18T13:59:49;24.40;96.80
40932;DHT22;36257;46.052;12.540;2023-09-18T14:02:16;24.40;96.90
40932;DHT22;36257;46.052;12.540;2023-09-18T14:04:42;24.30;97.10
40932;DHT22;36257;46.052;12.540;2023-09-18T14:07:09;24.30;97.60
40932;DHT22;36257;46.052;12.540;2023-09-18T14:09:35;24.30;97.80
40932;DHT22;36257;46.052;12.540;2023-09-18T14:12:01;24.30;97.50
40932;DHT22;36257;46.052;12.540;2023-09-18T14:14:28;24.40;96.80
40932;DHT22;36257;46.052;12.540;2023-09-18T14:16:54;24.40;97.00
40932;DHT22;36257;46.052;12.540;2023-09-18T14:19:20;24.30;97.20
40932;DHT22;36257;46.052;12.540;2023-09-18T14:21:46;24.30;97.00
40932;DHT22;36257;46.052;12.540;2023-09-18T14:24:15;24.20;97.30
40932;DHT22;36257;46.052;12.540;2023-09-18T14:26:40;24.20;97.60
40932;DHT22;36257;46.052;12.540;2023-09-18T14:29:12;24.20;97.60
40932;DHT22;36257;46.052;12.540;2023-09-18T14:31:38;24.40;97.40
40932;DHT22;36257;46.052;12.540;2023-09-18T14:34:04;24.30;97.80
40932;DHT22;36257;46.052;12.540;2023-09-18T14:36:34;24.50;97.40
40932;DHT22;36257;46.052;12.540;2023-09-18T14:39:00;24.40;97.20
40932;DHT22;36257;46.052;12.540;2023-09-18T14:41:26;24.40;97.50
40932;DHT22;36257;46.052;12.540;2023-09-18T14:43:52;24.50;97.50
40932;DHT22;36257;46.052;12.540;2023-09-18T14:46:19;24.50;97.40
40932;DHT22;36257;46.052;12.540;2023-09-18T14:48:46;24.50;98.20
40932;DHT22;36257;46.052;12.540;2023-09-18T14:51:11;24.50;97.80
40932;DHT22;36257;46.052;12.540;2023-09-18T14:53:37;24.50;97.00
40932;DHT22;36257;46.052;12.540;2023-09-18T14:56:03;24.60;96.40
40932;DHT22;36257;46.052;12.540;2023-09-18T14:58:29;24.50;96.80
40932;DHT22;36257;46.052;12.540;2023-09-18T15:00:56;24.50;97.30
40932;DHT22;36257;46.052;12.540;2023-09-18T15:03:22;24.40;98.00
40932;DHT22;36257;46.052;12.540;2023-09-18T15:05:51;24.40;98.30
40932;DHT22;36257;46.052;12.540;2023-09-18T15:08:18;24.30;98.50
40932;DHT22;36257;46.052;12.540;2023-09-18T15:10:45;24.30;98.60
40932;DHT22;36257;46.052;12.540;2023-09-18T15:13:11;24.20;98.90
40932;DHT22;36257;46.052;12.540;2023-09-18T15:15:36;24.20;99.00
40932;DHT22;36257;46.052;12.540;2023-09-18T15:18:02;24.10;99.20
40932;DHT22;36257;46.052;12.540;2023-09-18T15:20:28;24.10;99.00
40932;DHT22;36257;46.052;12.540;2023-09-18T15:22:53;24.00;99.40
40932;DHT22;36257;46.052;12.540;2023-09-18T15:25:21;23.90;99.90
40932;DHT22;36257;46.052;12.540;2023-09-18T15:27:47;23.80;99.90